Airport View

Enter AWOS ICAO identifier for current METAR.

ex. KFNL

KHSE 080351Z AUTO 15006KT 10SM CLR 28/23 A3003 RMK AO2 SLP170 T02830228

8 Jul 2020 04:22

Frequency: 118.375

Phone: 252-995-3646

Other Area AWOS: K7W6 - K2DP - KMQI - KNBT

TAF KNKT 0803/0903 VRB05KT 9999 SCT020 BKN030 BKN050 QNH3000INS TEMPO 0805/0808 3200 SHRA BR BKN020 BKN060 FM081400 11010KT 8000 -SHRA BR BKN025 OVC055 QNH2985INS TEMPO 0815/0819 6000 TSRA BKN020CB BECMG 0823/0901 07007KT 9999 NSW FEW015 SCT025 BKN060 QNH2986INS T23/0809Z T27/0818Z